sensor_id;sensor_type;location;lat;lon;timestamp;P1;durP1;ratioP1;P2;durP2;ratioP2
5831;SDS011;50943;51.448;7.646;2023-03-14T00:00:40;5.60;;;1.30;;
5831;SDS011;50943;51.448;7.646;2023-03-14T00:03:07;7.27;;;1.50;;
5831;SDS011;50943;51.448;7.646;2023-03-14T00:05:33;6.87;;;1.20;;
5831;SDS011;50943;51.448;7.646;2023-03-14T00:08:00;6.80;;;1.30;;
5831;SDS011;50943;51.448;7.646;2023-03-14T00:10:27;4.40;;;1.60;;
5831;SDS011;50943;51.448;7.646;2023-03-14T00:12:53;4.50;;;1.50;;
5831;SDS011;50943;51.448;7.646;2023-03-14T00:15:21;5.87;;;1.73;;
5831;SDS011;50943;51.448;7.646;2023-03-14T00:17:48;4.30;;;1.30;;
5831;SDS011;50943;51.448;7.646;2023-03-14T00:20:15;5.87;;;1.33;;
5831;SDS011;50943;51.448;7.646;2023-03-14T00:22:41;5.97;;;1.30;;
5831;SDS011;50943;51.448;7.646;2023-03-14T00:25:11;6.27;;;1.17;;
5831;SDS011;50943;51.448;7.646;2023-03-14T00:27:38;5.70;;;1.27;;
5831;SDS011;50943;51.448;7.646;2023-03-14T00:30:05;7.90;;;1.37;;
5831;SDS011;50943;51.448;7.646;2023-03-14T00:32:34;5.53;;;1.30;;
5831;SDS011;50943;51.448;7.646;2023-03-14T00:35:00;5.47;;;2.53;;
5831;SDS011;50943;51.448;7.646;2023-03-14T00:37:28;3.40;;;1.33;;
5831;SDS011;50943;51.448;7.646;2023-03-14T00:39:55;8.10;;;1.57;;
5831;SDS011;50943;51.448;7.646;2023-03-14T00:42:23;4.17;;;2.07;;
5831;SDS011;50943;51.448;7.646;2023-03-14T00:44:50;3.90;;;1.33;;
5831;SDS011;50943;51.448;7.646;2023-03-14T00:47:17;7.63;;;1.60;;
5831;SDS011;50943;51.448;7.646;2023-03-14T00:49:44;4.60;;;1.60;;
5831;SDS011;50943;51.448;7.646;2023-03-14T00:52:12;4.57;;;1.70;;
5831;SDS011;50943;51.448;7.646;2023-03-14T00:54:38;6.40;;;1.67;;
5831;SDS011;50943;51.448;7.646;2023-03-14T00:57:05;4.87;;;1.57;;
5831;SDS011;50943;51.448;7.646;2023-03-14T00:59:31;3.90;;;1.30;;
5831;SDS011;50943;51.448;7.646;2023-03-14T01:01:58;14.80;;;1.80;;
5831;SDS011;50943;51.448;7.646;2023-03-14T01:04:24;3.90;;;1.30;;
5831;SDS011;50943;51.448;7.646;2023-03-14T01:06:53;2.60;;;0.90;;
5831;SDS011;50943;51.448;7.646;2023-03-14T01:09:19;8.20;;;2.83;;
5831;SDS011;50943;51.448;7.646;2023-03-14T01:11:46;5.10;;;1.63;;
5831;SDS011;50943;51.448;7.646;2023-03-14T01:14:13;4.13;;;1.27;;
5831;SDS011;50943;51.448;7.646;2023-03-14T01:16:40;5.73;;;1.30;;
5831;SDS011;50943;51.448;7.646;2023-03-14T01:19:07;5.53;;;1.07;;
5831;SDS011;50943;51.448;7.646;2023-03-14T01:21:34;3.87;;;1.30;;
5831;SDS011;50943;51.448;7.646;2023-03-14T01:24:04;6.07;;;1.40;;
5831;SDS011;50943;51.448;7.646;2023-03-14T01:26:32;6.00;;;1.40;;
5831;SDS011;50943;51.448;7.646;2023-03-14T01:28:59;3.93;;;1.33;;
5831;SDS011;50943;51.448;7.646;2023-03-14T01:31:27;6.13;;;1.30;;
5831;SDS011;50943;51.448;7.646;2023-03-14T01:33:54;5.83;;;1.53;;
5831;SDS011;50943;51.448;7.646;2023-03-14T01:36:21;7.10;;;1.70;;
5831;SDS011;50943;51.448;7.646;2023-03-14T01:38:48;2.53;;;1.10;;
5831;SDS011;50943;51.448;7.646;2023-03-14T01:41:17;5.73;;;0.93;;
5831;SDS011;50943;51.448;7.646;2023-03-14T01:43:45;6.07;;;1.10;;
5831;SDS011;50943;51.448;7.646;2023-03-14T01:46:20;2.80;;;0.93;;
5831;SDS011;50943;51.448;7.646;2023-03-14T01:48:59;8.07;;;1.10;;
5831;SDS011;50943;51.448;7.646;2023-03-14T01:51:30;4.83;;;1.20;;
5831;SDS011;50943;51.448;7.646;2023-03-14T01:54:01;6.40;;;1.33;;
5831;SDS011;50943;51.448;7.646;2023-03-14T01:56:33;3.40;;;1.17;;
5831;SDS011;50943;51.448;7.646;2023-03-14T01:59:00;1.70;;;0.80;;
5831;SDS011;50943;51.448;7.646;2023-03-14T02:01:27;2.20;;;1.00;;
5831;SDS011;50943;51.448;7.646;2023-03-14T02:03:55;4.20;;;0.80;;
5831;SDS011;50943;51.448;7.646;2023-03-14T02:06:23;3.80;;;1.00;;
5831;SDS011;50943;51.448;7.646;2023-03-14T02:08:51;3.03;;;0.90;;
5831;SDS011;50943;51.448;7.646;2023-03-14T02:11:18;2.33;;;0.90;;
5831;SDS011;50943;51.448;7.646;2023-03-14T02:13:46;6.13;;;1.20;;
5831;SDS011;50943;51.448;7.646;2023-03-14T02:16:13;5.03;;;1.00;;
5831;SDS011;50943;51.448;7.646;2023-03-14T02:18:39;3.50;;;1.07;;
5831;SDS011;50943;51.448;7.646;2023-03-14T02:21:08;2.67;;;0.90;;
5831;SDS011;50943;51.448;7.646;2023-03-14T02:23:39;7.90;;;1.20;;
5831;SDS011;50943;51.448;7.646;2023-03-14T02:26:10;7.73;;;0.93;;
5831;SDS011;50943;51.448;7.646;2023-03-14T02:28:42;3.80;;;1.10;;
5831;SDS011;50943;51.448;7.646;2023-03-14T02:31:08;4.80;;;0.90;;
5831;SDS011;50943;51.448;7.646;2023-03-14T02:33:35;2.33;;;0.80;;
5831;SDS011;50943;51.448;7.646;2023-03-14T02:36:04;5.83;;;1.20;;
5831;SDS011;50943;51.448;7.646;2023-03-14T02:38:33;6.80;;;1.00;;
5831;SDS011;50943;51.448;7.646;2023-03-14T02:41:02;4.57;;;1.10;;
5831;SDS011;50943;51.448;7.646;2023-03-14T02:43:29;9.30;;;3.40;;
5831;SDS011;50943;51.448;7.646;2023-03-14T02:45:58;2.80;;;0.80;;
5831;SDS011;50943;51.448;7.646;2023-03-14T02:48:25;6.33;;;1.37;;
5831;SDS011;50943;51.448;7.646;2023-03-14T02:50:54;6.03;;;1.20;;
5831;SDS011;50943;51.448;7.646;2023-03-14T02:53:23;6.90;;;1.20;;
5831;SDS011;50943;51.448;7.646;2023-03-14T02:55:52;7.07;;;1.30;;
5831;SDS011;50943;51.448;7.646;2023-03-14T02:58:19;6.30;;;1.30;;
5831;SDS011;50943;51.448;7.646;2023-03-14T03:00:45;8.63;;;1.50;;
5831;SDS011;50943;51.448;7.646;2023-03-14T03:03:14;5.10;;;1.50;;
5831;SDS011;50943;51.448;7.646;2023-03-14T03:05:41;4.77;;;1.50;;
5831;SDS011;50943;51.448;7.646;2023-03-14T03:08:09;4.50;;;1.27;;
5831;SDS011;50943;51.448;7.646;2023-03-14T03:10:35;5.80;;;1.40;;
5831;SDS011;50943;51.448;7.646;2023-03-14T03:13:02;6.00;;;1.03;;
5831;SDS011;50943;51.448;7.646;2023-03-14T03:15:29;8.47;;;1.13;;
5831;SDS011;50943;51.448;7.646;2023-03-14T03:17:55;4.60;;;1.20;;
5831;SDS011;50943;51.448;7.646;2023-03-14T03:20:24;6.17;;;1.03;;
5831;SDS011;50943;51.448;7.646;2023-03-14T03:22:50;3.80;;;1.20;;
5831;SDS011;50943;51.448;7.646;2023-03-14T03:25:17;7.90;;;1.50;;
5831;SDS011;50943;51.448;7.646;2023-03-14T03:27:45;4.40;;;1.70;;
5831;SDS011;50943;51.448;7.646;2023-03-14T03:30:12;6.80;;;1.73;;
5831;SDS011;50943;51.448;7.646;2023-03-14T03:32:40;5.80;;;1.47;;
5831;SDS011;50943;51.448;7.646;2023-03-14T03:35:07;9.60;;;1.60;;
5831;SDS011;50943;51.448;7.646;2023-03-14T03:37:35;4.80;;;1.40;;
5831;SDS011;50943;51.448;7.646;2023-03-14T03:40:04;2.93;;;1.00;;
5831;SDS011;50943;51.448;7.646;2023-03-14T03:42:31;3.10;;;1.17;;
5831;SDS011;50943;51.448;7.646;2023-03-14T03:44:58;3.23;;;1.07;;
5831;SDS011;50943;51.448;7.646;2023-03-14T03:47:25;8.97;;;1.50;;
5831;SDS011;50943;51.448;7.646;2023-03-14T03:49:51;3.30;;;1.47;;
5831;SDS011;50943;51.448;7.646;2023-03-14T03:52:18;4.43;;;1.00;;
5831;SDS011;50943;51.448;7.646;2023-03-14T03:54:46;7.33;;;1.20;;
5831;SDS011;50943;51.448;7.646;2023-03-14T03:57:13;6.33;;;1.53;;
5831;SDS011;50943;51.448;7.646;2023-03-14T03:59:39;10.57;;;1.60;;
5831;SDS011;50943;51.448;7.646;2023-03-14T04:02:06;3.63;;;1.10;;
5831;SDS011;50943;51.448;7.646;2023-03-14T04:04:34;4.20;;;1.40;;
5831;SDS011;50943;51.448;7.646;2023-03-14T04:07:01;3.40;;;1.20;;
5831;SDS011;50943;51.448;7.646;2023-03-14T04:09:27;4.70;;;1.10;;
5831;SDS011;50943;51.448;7.646;2023-03-14T04:11:55;3.30;;;1.13;;
5831;SDS011;50943;51.448;7.646;2023-03-14T04:14:22;18.77;;;1.50;;
5831;SDS011;50943;51.448;7.646;2023-03-14T04:16:49;7.23;;;1.47;;
5831;SDS011;50943;51.448;7.646;2023-03-14T04:19:16;4.77;;;1.20;;
5831;SDS011;50943;51.448;7.646;2023-03-14T04:21:42;5.03;;;1.20;;
5831;SDS011;50943;51.448;7.646;2023-03-14T04:24:10;6.07;;;1.20;;
5831;SDS011;50943;51.448;7.646;2023-03-14T04:26:37;5.10;;;1.20;;
5831;SDS011;50943;51.448;7.646;2023-03-14T04:29:05;9.30;;;1.20;;
5831;SDS011;50943;51.448;7.646;2023-03-14T04:31:31;7.40;;;1.17;;
5831;SDS011;50943;51.448;7.646;2023-03-14T04:33:58;1.67;;;0.90;;
5831;SDS011;50943;51.448;7.646;2023-03-14T04:36:24;6.87;;;1.33;;
5831;SDS011;50943;51.448;7.646;2023-03-14T04:38:51;2.97;;;0.90;;
5831;SDS011;50943;51.448;7.646;2023-03-14T04:41:19;5.23;;;0.90;;
5831;SDS011;50943;51.448;7.646;2023-03-14T04:43:46;4.97;;;1.20;;
5831;SDS011;50943;51.448;7.646;2023-03-14T04:46:14;5.20;;;0.87;;
5831;SDS011;50943;51.448;7.646;2023-03-14T04:48:40;3.23;;;1.40;;
5831;SDS011;50943;51.448;7.646;2023-03-14T04:51:07;4.23;;;1.33;;
5831;SDS011;50943;51.448;7.646;2023-03-14T04:53:33;5.63;;;1.37;;
5831;SDS011;50943;51.448;7.646;2023-03-14T04:56:02;3.47;;;1.27;;
5831;SDS011;50943;51.448;7.646;2023-03-14T04:58:28;4.87;;;1.90;;
5831;SDS011;50943;51.448;7.646;2023-03-14T05:00:55;4.77;;;1.50;;
5831;SDS011;50943;51.448;7.646;2023-03-14T05:03:23;3.57;;;1.40;;
5831;SDS011;50943;51.448;7.646;2023-03-14T05:05:49;6.90;;;1.47;;
5831;SDS011;50943;51.448;7.646;2023-03-14T05:08:16;7.03;;;1.57;;
5831;SDS011;50943;51.448;7.646;2023-03-14T05:10:42;6.07;;;1.60;;
5831;SDS011;50943;51.448;7.646;2023-03-14T05:13:09;7.33;;;1.50;;
5831;SDS011;50943;51.448;7.646;2023-03-14T05:15:35;10.10;;;1.70;;
5831;SDS011;50943;51.448;7.646;2023-03-14T05:18:02;5.43;;;1.47;;
5831;SDS011;50943;51.448;7.646;2023-03-14T05:20:31;8.63;;;1.73;;
5831;SDS011;50943;51.448;7.646;2023-03-14T05:22:57;18.07;;;2.17;;
5831;SDS011;50943;51.448;7.646;2023-03-14T05:25:24;6.80;;;1.70;;
5831;SDS011;50943;51.448;7.646;2023-03-14T05:27:53;11.20;;;3.00;;
5831;SDS011;50943;51.448;7.646;2023-03-14T05:30:19;5.00;;;1.40;;
5831;SDS011;50943;51.448;7.646;2023-03-14T05:32:47;9.60;;;2.73;;
5831;SDS011;50943;51.448;7.646;2023-03-14T05:35:14;10.30;;;3.03;;
5831;SDS011;50943;51.448;7.646;2023-03-14T05:37:42;7.00;;;2.10;;
5831;SDS011;50943;51.448;7.646;2023-03-14T05:40:09;6.00;;;1.87;;
5831;SDS011;50943;51.448;7.646;2023-03-14T05:42:36;8.07;;;2.20;;
5831;SDS011;50943;51.448;7.646;2023-03-14T05:45:03;7.97;;;1.87;;
5831;SDS011;50943;51.448;7.646;2023-03-14T05:47:30;12.20;;;1.90;;
5831;SDS011;50943;51.448;7.646;2023-03-14T05:49:57;4.90;;;1.77;;
5831;SDS011;50943;51.448;7.646;2023-03-14T05:52:24;9.50;;;1.83;;
5831;SDS011;50943;51.448;7.646;2023-03-14T05:54:51;4.13;;;1.40;;
5831;SDS011;50943;51.448;7.646;2023-03-14T05:57:20;8.27;;;1.90;;
5831;SDS011;50943;51.448;7.646;2023-03-14T05:59:46;7.07;;;1.87;;
5831;SDS011;50943;51.448;7.646;2023-03-14T06:02:15;5.37;;;1.20;;
5831;SDS011;50943;51.448;7.646;2023-03-14T06:04:42;4.80;;;1.60;;
5831;SDS011;50943;51.448;7.646;2023-03-14T06:07:08;4.03;;;1.27;;
5831;SDS011;50943;51.448;7.646;2023-03-14T06:09:35;3.87;;;1.20;;
5831;SDS011;50943;51.448;7.646;2023-03-14T06:12:04;2.20;;;0.93;;
5831;SDS011;50943;51.448;7.646;2023-03-14T06:14:32;7.60;;;1.40;;
5831;SDS011;50943;51.448;7.646;2023-03-14T06:16:58;4.33;;;1.13;;
5831;SDS011;50943;51.448;7.646;2023-03-14T06:19:25;2.10;;;1.00;;
5831;SDS011;50943;51.448;7.646;2023-03-14T06:21:52;2.20;;;1.00;;
5831;SDS011;50943;51.448;7.646;2023-03-14T06:24:19;4.80;;;1.27;;
5831;SDS011;50943;51.448;7.646;2023-03-14T06:26:45;4.90;;;1.30;;
5831;SDS011;50943;51.448;7.646;2023-03-14T06:29:13;4.47;;;1.20;;
5831;SDS011;50943;51.448;7.646;2023-03-14T06:31:40;2.10;;;1.10;;
5831;SDS011;50943;51.448;7.646;2023-03-14T06:34:07;2.50;;;1.03;;
5831;SDS011;50943;51.448;7.646;2023-03-14T06:36:33;3.03;;;1.30;;
5831;SDS011;50943;51.448;7.646;2023-03-14T06:39:00;4.37;;;1.40;;
5831;SDS011;50943;51.448;7.646;2023-03-14T06:41:26;2.03;;;0.87;;
5831;SDS011;50943;51.448;7.646;2023-03-14T06:43:53;5.23;;;1.63;;
5831;SDS011;50943;51.448;7.646;2023-03-14T06:46:21;3.63;;;1.10;;
5831;SDS011;50943;51.448;7.646;2023-03-14T06:48:47;3.23;;;0.90;;
5831;SDS011;50943;51.448;7.646;2023-03-14T06:51:14;6.50;;;1.03;;
5831;SDS011;50943;51.448;7.646;2023-03-14T06:53:41;1.73;;;0.87;;
5831;SDS011;50943;51.448;7.646;2023-03-14T06:56:07;2.13;;;0.83;;
5831;SDS011;50943;51.448;7.646;2023-03-14T06:58:34;4.70;;;0.90;;
5831;SDS011;50943;51.448;7.646;2023-03-14T07:01:01;3.57;;;1.23;;
5831;SDS011;50943;51.448;7.646;2023-03-14T07:03:29;1.90;;;0.90;;
5831;SDS011;50943;51.448;7.646;2023-03-14T07:05:56;5.27;;;0.90;;
5831;SDS011;50943;51.448;7.646;2023-03-14T07:08:22;2.30;;;0.80;;
5831;SDS011;50943;51.448;7.646;2023-03-14T07:10:49;2.80;;;0.70;;
5831;SDS011;50943;51.448;7.646;2023-03-14T07:13:15;2.57;;;0.80;;
5831;SDS011;50943;51.448;7.646;2023-03-14T07:15:42;1.60;;;0.80;;
5831;SDS011;50943;51.448;7.646;2023-03-14T07:18:08;2.83;;;1.00;;
5831;SDS011;50943;51.448;7.646;2023-03-14T07:20:36;1.97;;;0.73;;
5831;SDS011;50943;51.448;7.646;2023-03-14T07:23:03;2.27;;;0.90;;
5831;SDS011;50943;51.448;7.646;2023-03-14T07:25:29;1.53;;;0.70;;
5831;SDS011;50943;51.448;7.646;2023-03-14T07:27:56;1.53;;;0.67;;
5831;SDS011;50943;51.448;7.646;2023-03-14T07:30:22;4.90;;;0.90;;
5831;SDS011;50943;51.448;7.646;2023-03-14T07:32:50;1.70;;;0.70;;
5831;SDS011;50943;51.448;7.646;2023-03-14T07:35:17;1.30;;;0.70;;
5831;SDS011;50943;51.448;7.646;2023-03-14T07:37:45;3.10;;;0.80;;
5831;SDS011;50943;51.448;7.646;2023-03-14T07:40:11;2.27;;;0.97;;
5831;SDS011;50943;51.448;7.646;2023-03-14T07:42:40;1.90;;;0.80;;
5831;SDS011;50943;51.448;7.646;2023-03-14T07:45:07;1.63;;;0.70;;
5831;SDS011;50943;51.448;7.646;2023-03-14T07:47:34;2.07;;;0.80;;
5831;SDS011;50943;51.448;7.646;2023-03-14T07:50:00;1.50;;;0.80;;
5831;SDS011;50943;51.448;7.646;2023-03-14T07:52:27;2.23;;;0.90;;
5831;SDS011;50943;51.448;7.646;2023-03-14T07:54:55;2.63;;;0.87;;
5831;SDS011;50943;51.448;7.646;2023-03-14T07:57:24;2.30;;;0.80;;
5831;SDS011;50943;51.448;7.646;2023-03-14T07:59:51;1.40;;;0.70;;
5831;SDS011;50943;51.448;7.646;2023-03-14T08:02:17;1.73;;;0.80;;
5831;SDS011;50943;51.448;7.646;2023-03-14T08:04:47;1.73;;;0.80;;
5831;SDS011;50943;51.448;7.646;2023-03-14T08:07:13;2.07;;;1.00;;
5831;SDS011;50943;51.448;7.646;2023-03-14T08:09:40;1.50;;;0.80;;
5831;SDS011;50943;51.448;7.646;2023-03-14T08:12:08;1.47;;;0.70;;
5831;SDS011;50943;51.448;7.646;2023-03-14T08:14:34;3.00;;;0.80;;
5831;SDS011;50943;51.448;7.646;2023-03-14T08:17:01;1.40;;;0.60;;
5831;SDS011;50943;51.448;7.646;2023-03-14T08:19:27;1.87;;;0.60;;
5831;SDS011;50943;51.448;7.646;2023-03-14T08:21:54;2.33;;;0.90;;
5831;SDS011;50943;51.448;7.646;2023-03-14T08:24:21;1.97;;;1.23;;
5831;SDS011;50943;51.448;7.646;2023-03-14T08:26:47;1.60;;;0.90;;
5831;SDS011;50943;51.448;7.646;2023-03-14T08:29:15;2.90;;;1.20;;
5831;SDS011;50943;51.448;7.646;2023-03-14T08:31:42;2.37;;;1.37;;
5831;SDS011;50943;51.448;7.646;2023-03-14T08:34:09;1.93;;;1.10;;
5831;SDS011;50943;51.448;7.646;2023-03-14T08:36:35;2.40;;;1.07;;
5831;SDS011;50943;51.448;7.646;2023-03-14T08:39:02;1.97;;;1.00;;
5831;SDS011;50943;51.448;7.646;2023-03-14T08:41:32;1.90;;;1.10;;
5831;SDS011;50943;51.448;7.646;2023-03-14T08:43:58;2.80;;;1.23;;
5831;SDS011;50943;51.448;7.646;2023-03-14T08:46:26;2.13;;;1.30;;
5831;SDS011;50943;51.448;7.646;2023-03-14T08:48:53;2.20;;;1.40;;
5831;SDS011;50943;51.448;7.646;2023-03-14T08:51:19;3.30;;;1.33;;
5831;SDS011;50943;51.448;7.646;2023-03-14T08:53:46;2.47;;;1.20;;
5831;SDS011;50943;51.448;7.646;2023-03-14T08:56:12;1.83;;;1.00;;
5831;SDS011;50943;51.448;7.646;2023-03-14T08:58:39;2.27;;;0.97;;
5831;SDS011;50943;51.448;7.646;2023-03-14T09:01:07;2.13;;;1.17;;
5831;SDS011;50943;51.448;7.646;2023-03-14T09:03:36;2.50;;;1.40;;
5831;SDS011;50943;51.448;7.646;2023-03-14T09:06:02;2.77;;;1.20;;
5831;SDS011;50943;51.448;7.646;2023-03-14T09:08:30;2.83;;;1.40;;
5831;SDS011;50943;51.448;7.646;2023-03-14T09:10:57;2.43;;;1.30;;
5831;SDS011;50943;51.448;7.646;2023-03-14T09:13:23;3.43;;;1.40;;
5831;SDS011;50943;51.448;7.646;2023-03-14T09:15:50;3.23;;;1.50;;
5831;SDS011;50943;51.448;7.646;2023-03-14T09:18:17;1.70;;;1.03;;
5831;SDS011;50943;51.448;7.646;2023-03-14T09:20:45;2.00;;;1.30;;
5831;SDS011;50943;51.448;7.646;2023-03-14T09:23:12;1.57;;;1.00;;
5831;SDS011;50943;51.448;7.646;2023-03-14T09:25:38;2.37;;;1.60;;
5831;SDS011;50943;51.448;7.646;2023-03-14T09:28:05;2.60;;;1.60;;
5831;SDS011;50943;51.448;7.646;2023-03-14T09:30:32;1.90;;;1.10;;
5831;SDS011;50943;51.448;7.646;2023-03-14T09:32:58;4.23;;;2.60;;
5831;SDS011;50943;51.448;7.646;2023-03-14T09:35:25;4.10;;;1.70;;
5831;SDS011;50943;51.448;7.646;2023-03-14T09:37:53;2.67;;;1.27;;
5831;SDS011;50943;51.448;7.646;2023-03-14T09:40:21;2.90;;;1.40;;
5831;SDS011;50943;51.448;7.646;2023-03-14T09:42:50;3.77;;;1.30;;
5831;SDS011;50943;51.448;7.646;2023-03-14T09:45:19;4.60;;;1.33;;
5831;SDS011;50943;51.448;7.646;2023-03-14T09:47:51;2.60;;;1.50;;
5831;SDS011;50943;51.448;7.646;2023-03-14T09:50:18;2.57;;;1.60;;
5831;SDS011;50943;51.448;7.646;2023-03-14T09:52:46;1.97;;;1.47;;
5831;SDS011;50943;51.448;7.646;2023-03-14T09:55:16;1.80;;;1.30;;
5831;SDS011;50943;51.448;7.646;2023-03-14T09:57:45;2.60;;;1.30;;
5831;SDS011;50943;51.448;7.646;2023-03-14T10:00:14;2.73;;;0.87;;
5831;SDS011;50943;51.448;7.646;2023-03-14T10:02:43;1.50;;;0.80;;
5831;SDS011;50943;51.448;7.646;2023-03-14T10:05:13;2.87;;;1.40;;
5831;SDS011;50943;51.448;7.646;2023-03-14T10:07:42;3.73;;;1.50;;
5831;SDS011;50943;51.448;7.646;2023-03-14T10:10:10;3.67;;;1.27;;
5831;SDS011;50943;51.448;7.646;2023-03-14T10:12:39;1.60;;;0.77;;
5831;SDS011;50943;51.448;7.646;2023-03-14T10:15:07;1.50;;;0.90;;
5831;SDS011;50943;51.448;7.646;2023-03-14T10:17:39;1.40;;;0.80;;
5831;SDS011;50943;51.448;7.646;2023-03-14T10:20:07;2.00;;;1.00;;
5831;SDS011;50943;51.448;7.646;2023-03-14T10:22:52;2.00;;;1.10;;
5831;SDS011;50943;51.448;7.646;2023-03-14T10:25:24;1.30;;;0.70;;
5831;SDS011;50943;51.448;7.646;2023-03-14T10:27:54;2.23;;;0.70;;
5831;SDS011;50943;51.448;7.646;2023-03-14T10:32:56;1.50;;;0.80;;
5831;SDS011;50943;51.448;7.646;2023-03-14T10:35:25;1.40;;;0.80;;
5831;SDS011;50943;51.448;7.646;2023-03-14T10:37:52;1.70;;;1.00;;
5831;SDS011;50943;51.448;7.646;2023-03-14T10:40:20;4.70;;;1.07;;
5831;SDS011;50943;51.448;7.646;2023-03-14T10:42:51;2.17;;;1.33;;
5831;SDS011;50943;51.448;7.646;2023-03-14T10:45:25;2.00;;;1.30;;
5831;SDS011;50943;51.448;7.646;2023-03-14T10:47:56;4.70;;;1.60;;
5831;SDS011;50943;51.448;7.646;2023-03-14T10:50:26;3.30;;;1.47;;
5831;SDS011;50943;51.448;7.646;2023-03-14T10:52:54;2.40;;;1.20;;
5831;SDS011;50943;51.448;7.646;2023-03-14T10:55:23;4.77;;;1.20;;
5831;SDS011;50943;51.448;7.646;2023-03-14T10:57:51;2.90;;;1.27;;
5831;SDS011;50943;51.448;7.646;2023-03-14T11:00:18;3.00;;;1.17;;
5831;SDS011;50943;51.448;7.646;2023-03-14T11:02:52;5.07;;;1.60;;
5831;SDS011;50943;51.448;7.646;2023-03-14T11:05:28;2.70;;;1.60;;
5831;SDS011;50943;51.448;7.646;2023-03-14T11:07:58;7.00;;;1.73;;
5831;SDS011;50943;51.448;7.646;2023-03-14T11:10:31;4.13;;;1.63;;
5831;SDS011;50943;51.448;7.646;2023-03-14T11:13:05;4.03;;;1.57;;
5831;SDS011;50943;51.448;7.646;2023-03-14T11:15:41;2.40;;;1.40;;
5831;SDS011;50943;51.448;7.646;2023-03-14T11:21:26;3.10;;;1.57;;
5831;SDS011;50943;51.448;7.646;2023-03-14T11:23:59;2.83;;;1.50;;
5831;SDS011;50943;51.448;7.646;2023-03-14T11:26:42;3.70;;;1.90;;
5831;SDS011;50943;51.448;7.646;2023-03-14T11:29:16;5.07;;;1.80;;
5831;SDS011;50943;51.448;7.646;2023-03-14T11:31:47;3.30;;;1.87;;
5831;SDS011;50943;51.448;7.646;2023-03-14T11:34:17;2.73;;;1.70;;
5831;SDS011;50943;51.448;7.646;2023-03-14T11:36:51;2.20;;;1.40;;
5831;SDS011;50943;51.448;7.646;2023-03-14T11:39:19;2.50;;;1.53;;
5831;SDS011;50943;51.448;7.646;2023-03-14T11:41:47;4.47;;;1.50;;
5831;SDS011;50943;51.448;7.646;2023-03-14T11:44:16;2.13;;;1.20;;
5831;SDS011;50943;51.448;7.646;2023-03-14T11:46:46;5.83;;;1.23;;
5831;SDS011;50943;51.448;7.646;2023-03-14T11:49:19;2.87;;;1.20;;
5831;SDS011;50943;51.448;7.646;2023-03-14T11:51:52;2.63;;;1.10;;
5831;SDS011;50943;51.448;7.646;2023-03-14T11:54:25;2.40;;;1.30;;
5831;SDS011;50943;51.448;7.646;2023-03-14T11:56:59;2.70;;;1.20;;
5831;SDS011;50943;51.448;7.646;2023-03-14T11:59:28;5.20;;;1.50;;
5831;SDS011;50943;51.448;7.646;2023-03-14T12:02:00;3.10;;;1.20;;
5831;SDS011;50943;51.448;7.646;2023-03-14T12:04:39;2.97;;;1.07;;
5831;SDS011;50943;51.448;7.646;2023-03-14T12:07:12;2.77;;;1.20;;
5831;SDS011;50943;51.448;7.646;2023-03-14T12:09:44;4.57;;;2.30;;
5831;SDS011;50943;51.448;7.646;2023-03-14T12:12:14;4.13;;;1.40;;
5831;SDS011;50943;51.448;7.646;2023-03-14T12:14:46;2.10;;;1.10;;
5831;SDS011;50943;51.448;7.646;2023-03-14T12:17:20;2.50;;;1.00;;
5831;SDS011;50943;51.448;7.646;2023-03-14T12:19:49;3.70;;;1.10;;
5831;SDS011;50943;51.448;7.646;2023-03-14T12:22:27;10.30;;;1.10;;
5831;SDS011;50943;51.448;7.646;2023-03-14T12:24:59;4.33;;;1.30;;
5831;SDS011;50943;51.448;7.646;2023-03-14T12:27:41;6.37;;;1.17;;
5831;SDS011;50943;51.448;7.646;2023-03-14T12:30:17;4.13;;;1.10;;
5831;SDS011;50943;51.448;7.646;2023-03-14T12:33:11;6.63;;;1.97;;
5831;SDS011;50943;51.448;7.646;2023-03-14T12:35:42;5.03;;;1.50;;
5831;SDS011;50943;51.448;7.646;2023-03-14T12:38:09;4.97;;;1.43;;
5831;SDS011;50943;51.448;7.646;2023-03-14T12:40:40;4.73;;;1.40;;
5831;SDS011;50943;51.448;7.646;2023-03-14T12:43:24;5.20;;;1.10;;
5831;SDS011;50943;51.448;7.646;2023-03-14T12:48:56;4.93;;;1.57;;
5831;SDS011;50943;51.448;7.646;2023-03-14T12:51:33;4.43;;;1.10;;
5831;SDS011;50943;51.448;7.646;2023-03-14T12:57:09;2.10;;;1.00;;
5831;SDS011;50943;51.448;7.646;2023-03-14T12:59:45;3.47;;;1.00;;
5831;SDS011;50943;51.448;7.646;2023-03-14T13:02:16;6.20;;;1.23;;
5831;SDS011;50943;51.448;7.646;2023-03-14T13:04:47;4.77;;;1.20;;
5831;SDS011;50943;51.448;7.646;2023-03-14T13:07:30;5.03;;;1.27;;
5831;SDS011;50943;51.448;7.646;2023-03-14T13:10:04;6.20;;;1.40;;
5831;SDS011;50943;51.448;7.646;2023-03-14T13:12:44;10.20;;;1.40;;
5831;SDS011;50943;51.448;7.646;2023-03-14T13:15:18;6.17;;;1.40;;
5831;SDS011;50943;51.448;7.646;2023-03-14T13:17:47;5.20;;;1.50;;
5831;SDS011;50943;51.448;7.646;2023-03-14T13:20:16;6.00;;;1.00;;
5831;SDS011;50943;51.448;7.646;2023-03-14T13:22:47;3.87;;;1.30;;
5831;SDS011;50943;51.448;7.646;2023-03-14T13:25:14;3.73;;;1.30;;
5831;SDS011;50943;51.448;7.646;2023-03-14T13:27:43;7.40;;;1.20;;
5831;SDS011;50943;51.448;7.646;2023-03-14T13:32:55;6.27;;;1.60;;
5831;SDS011;50943;51.448;7.646;2023-03-14T13:35:23;4.20;;;1.23;;
5831;SDS011;50943;51.448;7.646;2023-03-14T13:37:54;7.90;;;1.10;;
5831;SDS011;50943;51.448;7.646;2023-03-14T13:40:24;12.10;;;1.83;;
5831;SDS011;50943;51.448;7.646;2023-03-14T13:43:01;10.57;;;1.90;;
5831;SDS011;50943;51.448;7.646;2023-03-14T13:45:29;10.07;;;2.27;;
5831;SDS011;50943;51.448;7.646;2023-03-14T13:47:56;10.93;;;2.07;;
5831;SDS011;50943;51.448;7.646;2023-03-14T13:50:22;19.50;;;2.10;;
5831;SDS011;50943;51.448;7.646;2023-03-14T13:52:56;10.20;;;2.10;;
5831;SDS011;50943;51.448;7.646;2023-03-14T13:55:23;13.10;;;2.30;;
5831;SDS011;50943;51.448;7.646;2023-03-14T13:57:50;12.63;;;2.20;;
5831;SDS011;50943;51.448;7.646;2023-03-14T14:00:20;12.73;;;2.37;;
5831;SDS011;50943;51.448;7.646;2023-03-14T14:02:52;23.23;;;2.40;;
5831;SDS011;50943;51.448;7.646;2023-03-14T14:05:19;13.83;;;2.10;;
5831;SDS011;50943;51.448;7.646;2023-03-14T14:07:48;17.80;;;3.00;;
5831;SDS011;50943;51.448;7.646;2023-03-14T14:10:17;19.33;;;2.50;;
5831;SDS011;50943;51.448;7.646;2023-03-14T14:12:45;15.17;;;2.43;;
5831;SDS011;50943;51.448;7.646;2023-03-14T14:15:16;11.30;;;2.13;;
5831;SDS011;50943;51.448;7.646;2023-03-14T14:17:45;11.23;;;2.10;;
5831;SDS011;50943;51.448;7.646;2023-03-14T14:20:16;13.73;;;2.53;;
5831;SDS011;50943;51.448;7.646;2023-03-14T14:22:47;13.27;;;2.17;;
5831;SDS011;50943;51.448;7.646;2023-03-14T14:25:14;7.13;;;1.77;;
5831;SDS011;50943;51.448;7.646;2023-03-14T14:27:46;11.23;;;2.10;;
5831;SDS011;50943;51.448;7.646;2023-03-14T14:30:24;11.53;;;2.07;;
5831;SDS011;50943;51.448;7.646;2023-03-14T14:33:06;10.50;;;2.30;;
5831;SDS011;50943;51.448;7.646;2023-03-14T14:35:37;10.73;;;2.20;;
5831;SDS011;50943;51.448;7.646;2023-03-14T14:38:09;9.10;;;2.20;;
5831;SDS011;50943;51.448;7.646;2023-03-14T14:40:43;10.33;;;2.43;;
5831;SDS011;50943;51.448;7.646;2023-03-14T14:43:14;11.93;;;3.97;;
5831;SDS011;50943;51.448;7.646;2023-03-14T14:45:43;14.50;;;2.77;;
5831;SDS011;50943;51.448;7.646;2023-03-14T14:48:11;12.47;;;2.00;;
5831;SDS011;50943;51.448;7.646;2023-03-14T14:50:39;24.20;;;3.00;;
5831;SDS011;50943;51.448;7.646;2023-03-14T14:53:20;13.63;;;2.60;;
5831;SDS011;50943;51.448;7.646;2023-03-14T14:55:50;11.33;;;2.80;;
5831;SDS011;50943;51.448;7.646;2023-03-14T14:58:20;10.77;;;2.03;;
5831;SDS011;50943;51.448;7.646;2023-03-14T15:00:51;14.47;;;3.20;;
5831;SDS011;50943;51.448;7.646;2023-03-14T15:03:20;15.50;;;2.27;;
5831;SDS011;50943;51.448;7.646;2023-03-14T15:05:47;12.57;;;2.20;;
5831;SDS011;50943;51.448;7.646;2023-03-14T15:08:13;13.40;;;1.97;;
5831;SDS011;50943;51.448;7.646;2023-03-14T15:10:40;9.43;;;1.93;;
5831;SDS011;50943;51.448;7.646;2023-03-14T15:13:07;12.70;;;1.90;;
5831;SDS011;50943;51.448;7.646;2023-03-14T15:15:34;14.40;;;2.07;;
5831;SDS011;50943;51.448;7.646;2023-03-14T15:18:01;12.83;;;2.27;;
5831;SDS011;50943;51.448;7.646;2023-03-14T15:20:28;6.30;;;1.60;;
5831;SDS011;50943;51.448;7.646;2023-03-14T15:22:55;10.17;;;1.77;;